METAR Data
IDs: Format: Raw Decoded Include TAF

Data at: 0156 UTC 01 Mar 2021

KSTL 010151Z 31012KT 10SM BKN200 08/02 A3000 RMK AO2 SLP158 T00780017